Durango, CO

5:31 PM MDT on May 24, 2017 (GMT -0600)
Durango-La Plata County | | Change Station
Active Advisory: Fire Weather Warning

Elev 6686 ft 37.15 °N, 107.75 °W | Updated 38 minutes ago

Mostly Cloudy
Mostly Cloudy
78 °F
Feels Like 78 °F
N
20
Wind Variable Wind from West
Gusts 31 mph

Today
High -- | Low -- °F
--% Chance of Precip.
Yesterday
High -- | Low -- °F
Precip. -- in
Pressure 29.70 in
Visibility 10.0 miles
Clouds Mostly Cloudy 11000 ft
Dew Point 23 °F
Humidity 13%
Rainfall 0.00 in
Snow Depth Not available.
5:56 AM 8:20 PM
Waning Crescent, 1% visible
METAR KDRO 242253Z AUTO 28017G27KT 10SM BKN110 26/M05 A2988 RMK AO2 PK WND 32032/2204 SLP057 T02561050
Pressure 29.70 in
Visibility 10.0 miles
Clouds Mostly Cloudy 11000 ft
Dew Point 23 °F
Humidity 13%
Rainfall 0.00 in
Snow Depth Not available.
5:56 AM 8:20 PM
Waning Crescent, 1% visible
METAR KDRO 242253Z AUTO 28017G27KT 10SM BKN110 26/M05 A2988 RMK AO2 PK WND 32032/2204 SLP057 T02561050

Get Your Daily Forecast Email!

Thanks for signing up!

Be on the lookout for a verification email in your inbox.

You'll start receiving severe weather alerts in your inbox..

×

10-Day Weather Forecast

Almanac

Astronomy

May. 24, 2017 Rise Set
Actual Time
Civil Twilight
Nautical Twilight
Astronomical Twilight
Moon
Length of Visible Light
Length of Day
Tomorrow will be .
, % of the Moon is Illuminated

Today's Extremes

State Highs State Lows

Community

WunderPhotos

Category 6

Welcome to Category 6. This is the collective home for Weather Underground's featured writeups by Dr. Jeff Masters (right), Bob Henson (left), Chris Burt, and other regular contributors.

Nearby

Air Quality

  Air Quality AQ Index Pollutant
Not available.

Snow Depth

Station Depth Elevation

Earthquake Activity

City Distance Mag. Time & Date
Minimum magnitude displayed is 2.5.

Coastal Water Temperatures

Place Temperature

Stations

Nearby Weather Stations

Station Location Temp. Windchill Dew Point Humidity Wind Precip. Elev Updated Type
                   

Watches & Warnings

Fire Weather Warning
Issued: 2:25 PM MDT May. 24, 2017 – National Weather Service

... Red flag warning in effect from noon to 7 PM MDT Thursday in
southwest Colorado for gusty winds... low relative humidity... and
dry fuels for fire weather zone 207...

* affected area... in Colorado, fire weather zone 207 southwest
Colorado lower forecast area.

* Winds... west 10 to 20 mph with gusts up to 35 mph.

* Relative humidity... 11 to 16 percent.

* Impacts... fire starts or existing fires may become difficult
to control.

Precautionary/preparedness actions...

A red flag warning means that critical fire weather conditions
are either occurring now, or will shortly. A combination of
strong winds, low relative humidity, and warm temperatures can
contribute to extreme fire behavior.